VEAT/IXA METAR and TAF weather

Enter ICAO airport designator
Station Type Date Time Source
VEAT METAR 2019/08/25 14:00 UTC NOAA

VEAT 251400Z 00000KT 6000 FEW020 SCT100 31/27 Q1003 NOSIG


Station Type Date Time Source
VEAT Decoded METAR 2019/08/25 14:00 UTC NOAA

Station name not available
Aug 25, 2019 - 10:00 AM EDT / 2019.08.25 1400 UTC
Wind: Calm:0
Visibility: 3 mile(s):0
Sky conditions: partly cloudy
Temperature: 87 F (31 C)
Heat index: 102.4 F (39.1 C):1
Dew Point: 80 F (27 C)
Relative Humidity: 79%
Pressure (altimeter): 29.62 in. Hg (1003 hPa)
ob: VEAT 251400Z 00000KT 6000 FEW020 SCT100 31/27 Q1003 NOSIG
cycle: 14

Station Type Date Time Source
VEAT TAF 2013/07/19 12:00 UTC NOAA

TAF VEAT 190900Z 1912/1921 16008KT 5000 HZ SCT018 FEW030CB BKN100
TEMPO 1912/1921 3000 -TSRA SCT015 FEW025CB OVC090

Example: see airport list